createdAt,value
2023-05-15T00:02:21.278Z,101129.78
2023-05-15T00:04:48.157Z,101137.19
2023-05-15T00:07:14.935Z,101126.28
2023-05-15T00:09:41.608Z,101111.13
2023-05-15T00:12:08.585Z,101118.28
2023-05-15T00:14:35.308Z,101126.94
2023-05-15T00:17:02.133Z,101127.53
2023-05-15T00:19:28.825Z,101110.94
2023-05-15T00:21:55.577Z,101119.03
2023-05-15T00:24:22.239Z,101129.25
2023-05-15T00:26:49.094Z,101127.25
2023-05-15T00:29:15.794Z,101115.00
2023-05-15T00:31:42.470Z,101126.28
2023-05-15T00:34:09.261Z,101127.06
2023-05-15T00:36:36.198Z,101127.03
2023-05-15T00:39:03.022Z,101130.31
2023-05-15T00:41:32.653Z,101131.22
2023-05-15T00:44:00.849Z,101127.66
2023-05-15T00:46:28.802Z,101136.41
2023-05-15T00:48:59.332Z,101136.63
2023-05-15T00:51:27.146Z,101116.38
2023-05-15T00:53:56.989Z,101128.38
2023-05-15T00:56:25.518Z,101122.66
2023-05-15T00:58:54.381Z,101129.31
2023-05-15T01:01:21.930Z,101132.59
2023-05-15T01:03:48.830Z,101127.72
2023-05-15T01:06:15.558Z,101132.31
2023-05-15T01:08:50.343Z,101119.78
2023-05-15T01:11:18.370Z,101134.72
2023-05-15T01:13:45.238Z,101131.97
2023-05-15T01:16:11.949Z,101120.56
2023-05-15T01:18:38.834Z,101134.22
2023-05-15T01:21:35.563Z,101128.88
2023-05-15T01:24:24.096Z,101138.81
2023-05-15T01:27:05.918Z,101138.06
2023-05-15T01:29:47.513Z,101134.72
2023-05-15T01:32:24.352Z,101121.00
2023-05-15T01:35:07.938Z,101120.00
2023-05-15T01:37:41.436Z,101127.28
2023-05-15T01:40:10.300Z,101132.34
2023-05-15T01:42:42.149Z,101135.63
2023-05-15T01:45:11.941Z,101135.63
2023-05-15T01:47:47.414Z,101117.34
2023-05-15T01:50:17.095Z,101135.88
2023-05-15T01:52:49.370Z,101121.22
2023-05-15T01:55:17.189Z,101135.25
2023-05-15T01:57:46.853Z,101133.75
2023-05-15T02:00:14.949Z,101137.09
2023-05-15T02:02:44.336Z,101125.94
2023-05-15T02:05:12.290Z,101136.28
2023-05-15T02:07:39.529Z,101126.31
2023-05-15T02:10:07.171Z,101129.66
2023-05-15T02:12:35.374Z,101127.06
2023-05-15T02:15:04.512Z,101123.66
2023-05-15T02:17:31.498Z,101143.22
2023-05-15T02:20:00.576Z,101143.09
2023-05-15T02:22:27.353Z,101142.91
2023-05-15T02:24:54.132Z,101154.25
2023-05-15T02:27:46.930Z,101155.66
2023-05-15T02:30:22.002Z,101151.50
2023-05-15T02:33:00.524Z,101153.06
2023-05-15T02:35:39.659Z,101162.06
2023-05-15T02:38:15.773Z,101157.56
2023-05-15T02:40:45.512Z,101155.38
2023-05-15T02:43:14.237Z,101145.22
2023-05-15T02:45:41.939Z,101158.03
2023-05-15T02:48:09.520Z,101160.19
2023-05-15T02:50:36.356Z,101157.28
2023-05-15T02:53:07.749Z,101163.63
2023-05-15T02:55:35.061Z,101167.41
2023-05-15T02:58:03.647Z,101173.69
2023-05-15T03:00:30.486Z,101156.56
2023-05-15T03:02:57.233Z,101164.34
2023-05-15T03:05:24.100Z,101165.06
2023-05-15T03:07:50.960Z,101153.41
2023-05-15T03:10:17.673Z,101173.31
2023-05-15T03:12:44.296Z,101166.34
2023-05-15T03:15:11.202Z,101177.47
2023-05-15T03:17:37.932Z,101172.91
2023-05-15T03:20:05.132Z,101169.09
2023-05-15T03:22:31.846Z,101175.44
2023-05-15T03:24:58.630Z,101174.59
2023-05-15T03:27:25.877Z,101182.34
2023-05-15T03:29:52.533Z,101178.97
2023-05-15T03:32:19.362Z,101179.88
2023-05-15T03:34:46.176Z,101187.84
2023-05-15T03:37:12.793Z,101184.03
2023-05-15T03:39:39.466Z,101183.16
2023-05-15T03:42:06.530Z,101180.38
2023-05-15T03:44:33.381Z,101186.53
2023-05-15T03:47:00.233Z,101146.38
2023-05-15T03:49:26.900Z,101164.41
2023-05-15T03:51:54.072Z,101184.91
2023-05-15T03:54:20.892Z,101183.00
2023-05-15T03:56:47.591Z,101162.78
2023-05-15T03:59:14.527Z,101168.94
2023-05-15T04:01:55.353Z,101178.53
2023-05-15T04:04:28.018Z,101181.00
2023-05-15T04:06:56.848Z,101167.19
2023-05-15T04:09:23.590Z,101169.66
2023-05-15T04:11:50.583Z,101180.22
2023-05-15T04:14:17.258Z,101168.22
2023-05-15T04:16:44.014Z,101176.72
2023-05-15T04:19:11.068Z,101167.91
2023-05-15T04:21:37.804Z,101178.41
2023-05-15T04:24:04.688Z,101181.38
2023-05-15T04:26:31.709Z,101176.00
2023-05-15T04:29:04.108Z,101189.50
2023-05-15T04:31:31.901Z,101193.28
2023-05-15T04:33:58.661Z,101189.97
2023-05-15T04:36:25.826Z,101188.19
2023-05-15T04:38:52.575Z,101173.34
2023-05-15T04:41:19.580Z,101187.00
2023-05-15T04:43:46.533Z,101193.41
2023-05-15T04:46:13.148Z,101192.69
2023-05-15T04:48:39.867Z,101187.56
2023-05-15T04:51:07.616Z,101188.69
2023-05-15T04:53:34.371Z,101184.41
2023-05-15T04:56:01.108Z,101178.28
2023-05-15T04:58:27.914Z,101193.63
2023-05-15T05:00:54.600Z,101201.63
2023-05-15T05:03:21.337Z,101199.94
2023-05-15T05:05:48.004Z,101194.19
2023-05-15T05:08:14.742Z,101214.16
2023-05-15T05:10:41.379Z,101213.16
2023-05-15T05:13:08.087Z,101201.06
2023-05-15T05:15:35.060Z,101209.09
2023-05-15T05:18:01.817Z,101215.63
2023-05-15T05:20:28.473Z,101206.16
2023-05-15T05:22:55.721Z,101218.56
2023-05-15T05:25:22.702Z,101215.09
2023-05-15T05:27:49.690Z,101219.97
2023-05-15T05:30:16.509Z,101216.97
2023-05-15T05:32:43.282Z,101216.91
2023-05-15T05:35:10.006Z,101216.84
2023-05-15T05:37:38.124Z,101216.84
2023-05-15T05:40:06.908Z,101218.69
2023-05-15T05:42:33.574Z,101222.84
2023-05-15T05:45:00.494Z,101224.41
2023-05-15T05:47:27.138Z,101225.34
2023-05-15T05:49:55.601Z,101225.56
2023-05-15T05:52:22.304Z,101228.47
2023-05-15T05:54:49.071Z,101233.06
2023-05-15T05:57:16.054Z,101220.81
2023-05-15T05:59:42.815Z,101232.41
2023-05-15T06:02:10.092Z,101227.16
2023-05-15T06:04:37.218Z,101241.06
2023-05-15T06:07:04.433Z,101236.88
2023-05-15T06:09:31.196Z,101232.81
2023-05-15T06:11:57.908Z,101230.03
2023-05-15T06:14:24.552Z,101208.63
2023-05-15T06:16:51.226Z,101242.44
2023-05-15T06:19:17.991Z,101240.91
2023-05-15T06:21:44.655Z,101244.53
2023-05-15T06:24:11.269Z,101248.41
2023-05-15T06:26:37.974Z,101247.44
2023-05-15T06:29:04.640Z,101249.00
2023-05-15T06:31:31.555Z,101248.19
2023-05-15T06:33:58.222Z,101252.50
2023-05-15T06:36:25.025Z,101253.84
2023-05-15T06:38:51.667Z,101253.56
2023-05-15T06:41:18.307Z,101254.28
2023-05-15T06:43:44.964Z,101253.97
2023-05-15T06:46:11.680Z,101257.16
2023-05-15T06:48:38.346Z,101268.13
2023-05-15T06:51:05.150Z,101269.75
2023-05-15T06:53:31.853Z,101265.56
2023-05-15T06:55:58.562Z,101239.41
2023-05-15T06:58:25.641Z,101268.91
2023-05-15T07:00:54.142Z,101274.03
2023-05-15T07:03:22.228Z,101267.75
2023-05-15T07:05:48.910Z,101270.50
2023-05-15T07:08:15.673Z,101257.69
2023-05-15T07:10:42.334Z,101249.75
2023-05-15T07:13:09.009Z,101258.91
2023-05-15T07:15:35.679Z,101272.91
2023-05-15T07:18:02.425Z,101267.38
2023-05-15T07:20:31.710Z,101252.28
2023-05-15T07:22:59.999Z,101271.44
2023-05-15T07:25:26.919Z,101260.13
2023-05-15T07:27:53.913Z,101273.28
2023-05-15T07:30:20.780Z,101267.88
2023-05-15T07:32:47.409Z,101264.31
2023-05-15T07:35:14.254Z,101267.28
2023-05-15T07:37:41.482Z,101252.59
2023-05-15T07:40:08.712Z,101259.66
2023-05-15T07:42:35.459Z,101264.94
2023-05-15T07:45:02.159Z,101265.28
2023-05-15T07:47:29.050Z,101266.16
2023-05-15T07:49:55.872Z,101268.28
2023-05-15T07:52:22.568Z,101270.66
2023-05-15T07:54:49.534Z,101271.91
2023-05-15T07:57:16.165Z,101266.34
2023-05-15T07:59:43.123Z,101243.56
2023-05-15T08:02:09.778Z,101268.13
2023-05-15T08:04:36.536Z,101275.75
2023-05-15T08:07:03.281Z,101276.72
2023-05-15T08:09:29.943Z,101286.25
2023-05-15T08:11:57.447Z,101290.34
2023-05-15T08:14:24.204Z,101285.19
2023-05-15T08:16:51.763Z,101282.97
2023-05-15T08:19:19.451Z,101263.09
2023-05-15T08:21:46.168Z,101284.72
2023-05-15T08:24:12.816Z,101277.41
2023-05-15T08:26:39.472Z,101293.78
2023-05-15T08:29:06.149Z,101294.63
2023-05-15T08:31:32.890Z,101301.19
2023-05-15T08:33:59.632Z,101281.63
2023-05-15T08:36:26.313Z,101295.38
2023-05-15T08:38:52.966Z,101297.13
2023-05-15T08:41:46.371Z,101290.44
2023-05-15T08:44:13.431Z,101304.47
2023-05-15T08:46:40.476Z,101305.44
2023-05-15T08:49:37.385Z,101293.13
2023-05-15T08:52:05.105Z,101301.06
2023-05-15T08:54:32.353Z,101301.53
2023-05-15T08:57:00.234Z,101303.63
2023-05-15T08:59:27.150Z,101313.03
2023-05-15T09:01:54.928Z,101310.97
2023-05-15T09:04:21.702Z,101314.13
2023-05-15T09:06:48.818Z,101310.13
2023-05-15T09:09:17.369Z,101306.75
2023-05-15T09:11:45.626Z,101298.03
2023-05-15T09:14:12.462Z,101317.22
2023-05-15T09:16:39.876Z,101321.56
2023-05-15T09:19:07.408Z,101326.56
2023-05-15T09:21:34.568Z,101319.53
2023-05-15T09:24:23.509Z,101304.22
2023-05-15T09:27:04.760Z,101310.13
2023-05-15T09:29:32.755Z,101318.22
2023-05-15T09:32:07.294Z,101312.88
2023-05-15T09:34:36.459Z,101324.13
2023-05-15T09:37:05.563Z,101326.72
2023-05-15T09:39:32.539Z,101322.69
2023-05-15T09:42:09.995Z,101329.72
2023-05-15T09:44:42.028Z,101330.97
2023-05-15T09:47:10.493Z,101329.72
2023-05-15T09:49:37.541Z,101324.13
2023-05-15T09:52:09.113Z,101322.69
2023-05-15T09:54:37.303Z,101327.41
2023-05-15T09:57:11.925Z,101324.84
2023-05-15T09:59:46.586Z,101319.13
2023-05-15T10:02:35.419Z,101327.06
2023-05-15T10:05:02.395Z,101325.91
2023-05-15T10:07:31.603Z,101320.28
2023-05-15T10:09:59.416Z,101332.47
2023-05-15T10:12:26.907Z,101320.59
2023-05-15T10:14:57.302Z,101318.50
2023-05-15T10:17:24.628Z,101331.53
2023-05-15T10:19:58.305Z,101329.28
2023-05-15T10:22:29.404Z,101331.59
2023-05-15T10:25:26.737Z,101341.44
2023-05-15T10:27:54.728Z,101332.81
2023-05-15T10:30:22.260Z,101334.91
2023-05-15T10:32:49.925Z,101330.19
2023-05-15T10:35:17.634Z,101311.34
2023-05-15T10:37:47.009Z,101343.16
2023-05-15T10:40:18.387Z,101342.34
2023-05-15T10:42:47.087Z,101353.59
2023-05-15T10:45:14.315Z,101346.69
2023-05-15T10:47:42.873Z,101347.31
2023-05-15T10:50:11.688Z,101348.69
2023-05-15T10:52:39.468Z,101354.75
2023-05-15T10:55:08.171Z,101358.81
2023-05-15T10:57:35.925Z,101354.75
2023-05-15T11:00:05.648Z,101351.94
2023-05-15T11:02:39.148Z,101364.19
2023-05-15T11:05:07.070Z,101352.38
2023-05-15T11:07:34.009Z,101365.44
2023-05-15T11:10:00.773Z,101357.00
2023-05-15T11:12:59.660Z,101356.03
2023-05-15T11:15:26.399Z,101332.63
2023-05-15T11:18:03.973Z,101337.81
2023-05-15T11:20:40.217Z,101353.00
2023-05-15T11:23:07.171Z,101349.63
2023-05-15T11:25:35.981Z,101346.81
2023-05-15T11:28:04.706Z,101348.16
2023-05-15T11:30:39.371Z,101343.16
2023-05-15T11:33:10.243Z,101352.13
2023-05-15T11:35:42.382Z,101358.59
2023-05-15T11:38:16.716Z,101346.13
2023-05-15T11:41:03.886Z,101361.47
2023-05-15T11:43:32.387Z,101354.91
2023-05-15T11:46:08.521Z,101366.19
2023-05-15T11:48:43.980Z,101379.28
2023-05-15T11:51:22.404Z,101370.94
2023-05-15T11:53:54.577Z,101374.94
2023-05-15T11:56:25.900Z,101368.47
2023-05-15T11:58:58.538Z,101364.56
2023-05-15T12:01:25.562Z,101382.44
2023-05-15T12:03:54.418Z,101377.50
2023-05-15T12:06:22.924Z,101373.16
2023-05-15T12:08:53.421Z,101379.63
2023-05-15T12:11:24.725Z,101384.94
2023-05-15T12:13:55.251Z,101393.53
2023-05-15T12:16:26.497Z,101380.50
2023-05-15T12:18:53.871Z,101390.84
2023-05-15T12:21:21.025Z,101413.44
2023-05-15T12:26:27.492Z,101386.19
2023-05-15T12:28:56.291Z,101385.03
2023-05-15T12:31:23.403Z,101378.97
2023-05-15T12:33:50.589Z,101382.06
2023-05-15T12:36:20.896Z,101386.06
2023-05-15T12:38:48.465Z,101395.16
2023-05-15T12:41:17.820Z,101393.53
2023-05-15T12:43:44.953Z,101392.84
2023-05-15T12:46:13.609Z,101392.91
2023-05-15T12:48:41.055Z,101378.72
2023-05-15T12:51:08.992Z,101386.34
2023-05-15T12:53:36.412Z,101391.28
2023-05-15T12:56:04.858Z,101368.63
2023-05-15T12:58:31.694Z,101370.66
2023-05-15T13:00:58.953Z,101389.84
2023-05-15T13:03:26.564Z,101385.50
2023-05-15T13:05:53.487Z,101395.47
2023-05-15T13:08:20.377Z,101387.91
2023-05-15T13:10:47.825Z,101391.56
2023-05-15T13:13:15.251Z,101389.75
2023-05-15T13:15:45.430Z,101367.44
2023-05-15T13:18:17.211Z,101401.16
2023-05-15T13:20:48.798Z,101385.88
2023-05-15T13:23:20.499Z,101387.19
2023-05-15T13:25:47.287Z,101393.91
2023-05-15T13:28:14.215Z,101401.97
2023-05-15T13:30:42.238Z,101397.44
2023-05-15T13:33:10.869Z,101389.59
2023-05-15T13:35:38.692Z,101379.00
2023-05-15T13:38:05.649Z,101396.81
2023-05-15T13:40:38.355Z,101399.13
2023-05-15T13:43:06.908Z,101411.38
2023-05-15T13:45:34.080Z,101404.69
2023-05-15T13:48:00.880Z,101397.34
2023-05-15T13:50:27.724Z,101414.09
2023-05-15T13:52:54.681Z,101413.38
2023-05-15T13:55:22.928Z,101407.78
2023-05-15T13:57:49.901Z,101405.00
2023-05-15T14:00:17.417Z,101403.25
2023-05-15T14:02:44.760Z,101391.53
2023-05-15T14:05:13.627Z,101396.22
2023-05-15T14:07:41.060Z,101400.66
2023-05-15T14:10:08.490Z,101410.28
2023-05-15T14:12:37.624Z,101398.69
2023-05-15T14:15:04.959Z,101398.75
2023-05-15T14:17:31.738Z,101404.44
2023-05-15T14:19:58.487Z,101404.41
2023-05-15T14:22:25.420Z,101402.34
2023-05-15T14:24:55.084Z,101393.84
2023-05-15T14:27:21.778Z,101382.47
2023-05-15T14:29:49.343Z,101398.34
2023-05-15T14:32:17.390Z,101379.63
2023-05-15T14:34:44.407Z,101384.31
2023-05-15T14:37:11.106Z,101392.31
2023-05-15T14:39:37.981Z,101392.38
2023-05-15T14:42:04.844Z,101406.78
2023-05-15T14:44:31.561Z,101392.22
2023-05-15T14:47:08.428Z,101402.09
2023-05-15T14:49:36.075Z,101392.81
2023-05-15T14:52:04.262Z,101398.41
2023-05-15T14:54:30.953Z,101391.31
2023-05-15T14:56:58.364Z,101388.69
2023-05-15T14:59:30.958Z,101385.94
2023-05-15T15:01:57.696Z,101391.44
2023-05-15T15:04:24.604Z,101388.56
2023-05-15T15:06:51.224Z,101388.56
2023-05-15T15:09:21.275Z,101390.66
2023-05-15T15:11:48.419Z,101381.50
2023-05-15T15:14:15.147Z,101396.78
2023-05-15T15:16:44.177Z,101392.06
2023-05-15T15:19:11.153Z,101390.91
2023-05-15T15:21:37.959Z,101394.50
2023-05-15T15:24:04.806Z,101403.47
2023-05-15T15:26:31.519Z,101386.41
2023-05-15T15:29:01.034Z,101390.31
2023-05-15T15:31:29.869Z,101373.16
2023-05-15T15:33:57.533Z,101371.78
2023-05-15T15:36:25.081Z,101397.78
2023-05-15T15:38:51.820Z,101379.75
2023-05-15T15:41:18.542Z,101391.75
2023-05-15T15:43:45.282Z,101389.41
2023-05-15T15:46:12.043Z,101386.72
2023-05-15T15:48:38.724Z,101376.38
2023-05-15T15:51:05.970Z,101410.19
2023-05-15T15:53:34.518Z,101404.66
2023-05-15T15:56:01.587Z,101396.13
2023-05-15T15:58:28.990Z,101401.06
2023-05-15T16:00:55.815Z,101401.69
2023-05-15T16:03:22.609Z,101397.66
2023-05-15T16:05:49.366Z,101407.22
2023-05-15T16:08:16.024Z,101413.38
2023-05-15T16:10:42.773Z,101412.03
2023-05-15T16:13:09.688Z,101400.28
2023-05-15T16:15:36.389Z,101408.53
2023-05-15T16:18:03.059Z,101404.03
2023-05-15T16:20:29.913Z,101394.72
2023-05-15T16:22:57.460Z,101405.06
2023-05-15T16:25:24.077Z,101399.19
2023-05-15T16:27:51.447Z,101409.28
2023-05-15T16:30:18.267Z,101407.38
2023-05-15T16:32:45.682Z,101399.38
2023-05-15T16:35:12.427Z,101405.44
2023-05-15T16:37:41.473Z,101403.75
2023-05-15T16:40:08.944Z,101391.91
2023-05-15T16:42:38.555Z,101411.72
2023-05-15T16:45:07.144Z,101407.38
2023-05-15T16:47:34.151Z,101412.91
2023-05-15T16:50:00.979Z,101406.53
2023-05-15T16:52:27.799Z,101409.50
2023-05-15T16:54:57.882Z,101415.78
2023-05-15T16:57:24.684Z,101396.03
2023-05-15T16:59:51.836Z,101403.47
2023-05-15T17:02:18.899Z,101428.94
2023-05-15T17:04:45.649Z,101392.41
2023-05-15T17:07:12.305Z,101425.91
2023-05-15T17:09:40.735Z,101428.03
2023-05-15T17:12:07.555Z,101420.00
2023-05-15T17:14:34.253Z,101416.47
2023-05-15T17:17:00.997Z,101425.69
2023-05-15T17:19:27.662Z,101431.13
2023-05-15T17:21:54.339Z,101425.38
2023-05-15T17:24:20.975Z,101438.75
2023-05-15T17:26:50.817Z,101432.28
2023-05-15T17:29:17.505Z,101438.03
2023-05-15T17:31:44.396Z,101435.09
2023-05-15T17:34:11.712Z,101436.75
2023-05-15T17:36:38.477Z,101437.63
2023-05-15T17:39:05.251Z,101448.81
2023-05-15T17:41:36.726Z,101447.97
2023-05-15T17:44:03.949Z,101437.03
2023-05-15T17:46:30.784Z,101437.41
2023-05-15T17:49:00.420Z,101448.69
2023-05-15T17:51:27.238Z,101448.59
2023-05-15T17:53:53.895Z,101449.03
2023-05-15T17:56:21.472Z,101444.00
2023-05-15T17:58:48.139Z,101434.06
2023-05-15T18:01:15.577Z,101453.31
2023-05-15T18:03:42.338Z,101419.25
2023-05-15T18:06:09.262Z,101438.66
2023-05-15T18:08:35.882Z,101440.81
2023-05-15T18:11:08.532Z,101446.19
2023-05-15T18:13:41.093Z,101439.19
2023-05-15T18:16:07.906Z,101444.19
2023-05-15T18:18:35.392Z,101449.47
2023-05-15T18:21:02.795Z,101447.25
2023-05-15T18:23:29.470Z,101445.53
2023-05-15T18:25:56.094Z,101438.97
2023-05-15T18:28:22.888Z,101448.94
2023-05-15T18:30:50.896Z,101423.69
2023-05-15T18:33:17.617Z,101460.88
2023-05-15T18:35:44.363Z,101459.13
2023-05-15T18:38:11.002Z,101463.78
2023-05-15T18:40:37.662Z,101464.22
2023-05-15T18:43:05.012Z,101461.56
2023-05-15T18:45:31.856Z,101460.41
2023-05-15T18:47:58.643Z,101475.31
2023-05-15T18:50:25.453Z,101456.69
2023-05-15T18:52:52.420Z,101473.41
2023-05-15T18:55:21.763Z,101489.34
2023-05-15T18:57:48.650Z,101486.53
2023-05-15T19:00:26.692Z,101482.22
2023-05-15T19:03:04.328Z,101473.84
2023-05-15T19:05:34.379Z,101474.69
2023-05-15T19:08:02.333Z,101466.94
2023-05-15T19:10:29.923Z,101473.09
2023-05-15T19:12:58.052Z,101475.34
2023-05-15T19:15:26.066Z,101462.34
2023-05-15T19:17:53.248Z,101464.66
2023-05-15T19:20:21.463Z,101466.81
2023-05-15T19:22:49.114Z,101472.09
2023-05-15T19:25:16.595Z,101475.94
2023-05-15T19:27:44.062Z,101463.84
2023-05-15T19:30:13.889Z,101458.28
2023-05-15T19:32:41.332Z,101478.13
2023-05-15T19:35:08.503Z,101466.81
2023-05-15T19:37:35.213Z,101476.16
2023-05-15T19:40:01.988Z,101478.97
2023-05-15T19:42:29.080Z,101448.53
2023-05-15T19:44:55.977Z,101479.84
2023-05-15T19:47:22.812Z,101489.00
2023-05-15T19:49:49.554Z,101496.00
2023-05-15T19:52:17.228Z,101487.31
2023-05-15T19:54:44.439Z,101496.97
2023-05-15T19:57:11.097Z,101480.38
2023-05-15T19:59:37.857Z,101496.88
2023-05-15T20:02:05.921Z,101485.53
2023-05-15T20:04:34.018Z,101489.22
2023-05-15T20:07:00.780Z,101497.44
2023-05-15T20:09:27.408Z,101492.31
2023-05-15T20:11:54.386Z,101491.69
2023-05-15T20:14:21.086Z,101510.00
2023-05-15T20:16:47.746Z,101508.22
2023-05-15T20:19:14.708Z,101512.84
2023-05-15T20:21:41.465Z,101511.16
2023-05-15T20:24:08.222Z,101504.22
2023-05-15T20:26:36.078Z,101480.31
2023-05-15T20:29:03.674Z,101508.25
2023-05-15T20:31:30.509Z,101510.03
2023-05-15T20:33:57.354Z,101501.63
2023-05-15T20:36:25.690Z,101515.56
2023-05-15T20:38:52.939Z,101499.78
2023-05-15T20:41:22.268Z,101498.88
2023-05-15T20:43:49.720Z,101511.22
2023-05-15T20:46:16.491Z,101503.25
2023-05-15T20:48:43.279Z,101509.94
2023-05-15T20:51:09.919Z,101508.53
2023-05-15T20:53:36.536Z,101513.91
2023-05-15T20:56:03.465Z,101509.78
2023-05-15T20:58:30.173Z,101510.56
2023-05-15T21:01:00.844Z,101504.28
2023-05-15T21:03:27.813Z,101509.84
2023-05-15T21:05:56.729Z,101521.84
2023-05-15T21:08:24.157Z,101516.13
2023-05-15T21:10:53.095Z,101523.63
2023-05-15T21:13:19.809Z,101517.94
2023-05-15T21:15:47.061Z,101514.72
2023-05-15T21:18:13.890Z,101506.47
2023-05-15T21:20:41.818Z,101517.78
2023-05-15T21:23:08.685Z,101515.22
2023-05-15T21:25:35.439Z,101524.94
2023-05-15T21:28:02.095Z,101510.84
2023-05-15T21:30:28.822Z,101521.38
2023-05-15T21:32:55.731Z,101518.00
2023-05-15T21:35:22.471Z,101522.63
2023-05-15T21:37:49.138Z,101516.53
2023-05-15T21:40:15.930Z,101518.41
2023-05-15T21:42:43.191Z,101514.94
2023-05-15T21:45:10.247Z,101515.41
2023-05-15T21:47:36.923Z,101514.72
2023-05-15T21:50:03.994Z,101518.59
2023-05-15T21:52:30.773Z,101526.19
2023-05-15T21:54:57.374Z,101525.19
2023-05-15T21:57:24.189Z,101517.31
2023-05-15T21:59:51.244Z,101522.63
2023-05-15T22:02:17.877Z,101526.47
2023-05-15T22:04:44.521Z,101525.00
2023-05-15T22:07:11.325Z,101527.56
2023-05-15T22:09:37.999Z,101521.94
2023-05-15T22:12:04.926Z,101524.81
2023-05-15T22:14:31.575Z,101516.69
2023-05-15T22:16:58.216Z,101517.38
2023-05-15T22:19:32.957Z,101511.56
2023-05-15T22:22:02.006Z,101493.13
2023-05-15T22:24:28.648Z,101511.63
2023-05-15T22:26:55.489Z,101506.28
2023-05-15T22:29:22.172Z,101512.28
2023-05-15T22:31:48.892Z,101506.38
2023-05-15T22:34:15.583Z,101507.34
2023-05-15T22:36:42.200Z,101513.59
2023-05-15T22:39:09.017Z,101492.69
2023-05-15T22:41:35.715Z,101515.38
2023-05-15T22:44:03.072Z,101494.06
2023-05-15T22:46:29.955Z,101496.81
2023-05-15T22:48:59.137Z,101508.97
2023-05-15T22:51:26.979Z,101511.78
2023-05-15T22:53:53.681Z,101502.06
2023-05-15T22:56:20.298Z,101504.41
2023-05-15T22:58:48.033Z,101512.38
2023-05-15T23:01:14.738Z,101505.66
2023-05-15T23:03:41.508Z,101510.69
2023-05-15T23:06:08.269Z,101507.38
2023-05-15T23:08:34.873Z,101513.47
2023-05-15T23:11:01.583Z,101505.59
2023-05-15T23:13:28.303Z,101509.97
2023-05-15T23:15:55.014Z,101496.50
2023-05-15T23:18:21.822Z,101507.41
2023-05-15T23:20:48.446Z,101505.84
2023-05-15T23:23:15.377Z,101513.41
2023-05-15T23:25:42.060Z,101515.13
2023-05-15T23:28:08.664Z,101505.53
2023-05-15T23:30:35.427Z,101515.75
2023-05-15T23:33:02.083Z,101517.59
2023-05-15T23:35:28.778Z,101510.66
2023-05-15T23:37:55.414Z,101499.09
2023-05-15T23:40:22.086Z,101483.16
2023-05-15T23:42:48.846Z,101493.00
2023-05-15T23:45:15.566Z,101501.94
2023-05-15T23:47:42.470Z,101508.84
2023-05-15T23:50:09.286Z,101516.34
2023-05-15T23:52:36.071Z,101505.94
2023-05-15T23:55:02.769Z,101496.31
2023-05-15T23:57:29.409Z,101505.41
2023-05-15T23:59:56.145Z,101487.97
